Time;durP1;ratioP1;P1;durP2;ratioP2;P2;SDS_P1;SDS_P2;PMS_P1;PMS_P2;Temp;Humidity;BMP_temperature;BMP_pressure;BME280_temperature;BME280_humidity;BME280_pressure;Samples;Min_cycle;Max_cycle;Signal;HPM_P1;HPM_P2
2023/08/31 00:03:02;;;;;;;3.40;3.00;;;;;;;15.36;100.00;99638.53;5588705;31;33860;-67
2023/08/31 00:06:07;;;;;;;3.50;3.20;;;;;;;15.35;100.00;99636.88;5589439;31;33880;-67
2023/08/31 00:09:10;;;;;;;5.82;3.20;;;;;;;15.33;100.00;99640.81;5589370;31;33895;-67
2023/08/31 00:12:13;;;;;;;3.90;3.50;;;;;;;15.43;100.00;99643.84;5588615;31;33804;-69
2023/08/31 00:15:15;;;;;;;3.47;3.17;;;;;;;15.52;100.00;99643.37;5589144;31;34086;-66
2023/08/31 00:18:18;;;;;;;3.87;3.50;;;;;;;15.55;100.00;99634.09;5588587;31;33696;-68
2023/08/31 00:21:21;;;;;;;4.95;3.10;;;;;;;15.55;100.00;99637.59;5589053;31;33786;-67
2023/08/31 00:24:29;;;;;;;3.60;3.30;;;;;;;15.45;100.00;99642.56;5589041;31;33883;-67
2023/08/31 00:27:32;;;;;;;3.60;3.12;;;;;;;15.48;100.00;99636.81;5589118;31;34552;-67
2023/08/31 00:30:35;;;;;;;3.45;2.92;;;;;;;15.58;100.00;99647.88;5588898;31;34680;-67
2023/08/31 00:33:38;;;;;;;3.15;2.85;;;;;;;15.74;100.00;99643.81;5588852;31;32315;-67
2023/08/31 00:36:41;;;;;;;4.85;2.97;;;;;;;15.84;100.00;99651.34;5588980;31;33801;-67
2023/08/31 00:39:44;;;;;;;3.03;2.72;;;;;;;15.77;100.00;99653.25;5588800;31;33891;-68
2023/08/31 00:42:47;;;;;;;4.55;3.08;;;;;;;15.71;100.00;99646.09;5588872;31;34602;-67
2023/08/31 00:45:58;;;;;;;3.37;3.08;;;;;;;15.63;100.00;99642.69;5588261;31;33824;-68
2023/08/31 00:49:03;;;;;;;3.12;2.83;;;;;;;15.66;100.00;99644.09;5588794;31;34847;-69
2023/08/31 00:52:06;;;;;;;3.12;2.80;;;;;;;15.67;100.00;99640.38;5588707;31;34473;-68
2023/08/31 00:55:10;;;;;;;4.10;2.87;;;;;;;15.68;100.00;99631.34;5588923;31;33848;-67
2023/08/31 00:58:13;;;;;;;3.40;2.90;;;;;;;15.66;100.00;99638.75;5589954;31;34311;-68
2023/08/31 01:01:37;;;;;;;3.45;3.10;;;;;;;15.62;100.00;99638.38;5590931;31;34069;-67
2023/08/31 01:05:03;;;;;;;3.28;2.97;;;;;;;15.63;100.00;99641.88;5590302;31;33819;-67
2023/08/31 01:08:23;;;;;;;4.93;3.25;;;;;;;15.73;100.00;99646.72;5591028;31;34464;-67
2023/08/31 01:11:26;;;;;;;5.28;3.30;;;;;;;15.58;100.00;99647.88;5590880;31;33828;-68
2023/08/31 01:14:39;;;;;;;5.82;3.30;;;;;;;15.55;100.00;99656.31;5590910;31;33779;-67
2023/08/31 01:17:48;;;;;;;3.55;3.00;;;;;;;15.52;100.00;99661.28;5591193;31;33829;-67
2023/08/31 01:21:19;;;;;;;3.87;2.87;;;;;;;15.57;100.00;99656.09;5590070;31;34533;-67
2023/08/31 01:24:23;;;;;;;3.35;2.80;;;;;;;15.52;100.00;99648.72;5590796;31;34499;-68
2023/08/31 01:27:26;;;;;;;3.17;2.87;;;;;;;15.44;100.00;99648.16;5590030;31;33800;-67
2023/08/31 01:30:31;;;;;;;3.72;3.17;;;;;;;15.47;100.00;99655.72;5590802;31;33765;-67
2023/08/31 01:33:34;;;;;;;2.75;2.55;;;;;;;15.37;100.00;99660.72;5590423;31;34089;-67
2023/08/31 01:36:42;;;;;;;5.65;2.92;;;;;;;15.38;100.00;99670.41;5590926;31;33846;-67
2023/08/31 01:39:59;;;;;;;6.23;2.60;;;;;;;15.47;100.00;99672.59;5589908;31;33854;-67
2023/08/31 01:43:05;;;;;;;5.47;2.70;;;;;;;15.46;100.00;99678.12;5590544;31;33880;-68
2023/08/31 01:46:10;;;;;;;5.62;2.60;;;;;;;15.44;100.00;99680.22;5590410;31;34581;-68
2023/08/31 01:49:14;;;;;;;4.43;2.25;;;;;;;15.51;100.00;99681.03;5590557;31;33885;-67
2023/08/31 01:52:17;;;;;;;3.47;2.70;;;;;;;15.45;100.00;99669.31;5590900;31;33864;-68
2023/08/31 01:55:21;;;;;;;3.75;2.10;;;;;;;15.54;100.00;99676.03;5590473;31;33791;-68
2023/08/31 01:58:24;;;;;;;4.37;2.35;;;;;;;15.66;100.00;99668.16;5590725;31;33877;-67
2023/08/31 02:01:27;;;;;;;2.95;2.40;;;;;;;15.65;100.00;99667.34;5590354;31;33866;-67
2023/08/31 02:04:30;;;;;;;2.45;2.17;;;;;;;15.67;100.00;99669.81;5590322;31;35093;-68
2023/08/31 02:07:33;;;;;;;4.93;2.25;;;;;;;15.63;100.00;99677.44;5590051;31;34165;-67
2023/08/31 02:10:36;;;;;;;3.05;2.00;;;;;;;15.55;100.00;99675.03;5590634;31;33915;-67
2023/08/31 02:13:39;;;;;;;2.45;1.90;;;;;;;15.55;100.00;99676.88;5590318;31;33775;-67
2023/08/31 02:16:42;;;;;;;2.85;2.20;;;;;;;15.48;100.00;99676.91;5590361;31;34026;-67
2023/08/31 02:19:45;;;;;;;3.65;1.90;;;;;;;15.45;100.00;99681.84;5590229;31;34037;-68
2023/08/31 02:22:49;;;;;;;2.25;1.90;;;;;;;15.48;100.00;99681.44;5590229;31;33823;-68
2023/08/31 02:25:52;;;;;;;6.25;2.20;;;;;;;15.43;100.00;99678.59;5590645;31;33866;-68
2023/08/31 02:28:54;;;;;;;2.55;2.20;;;;;;;15.40;100.00;99677.16;5590166;31;35321;-68
2023/08/31 02:31:57;;;;;;;2.62;1.85;;;;;;;15.43;100.00;99681.25;5590144;31;33874;-68
2023/08/31 02:35:00;;;;;;;2.70;2.12;;;;;;;15.51;100.00;99689.03;5590090;31;34661;-68
2023/08/31 02:38:03;;;;;;;4.18;1.90;;;;;;;15.57;100.00;99685.50;5590221;31;33824;-68
2023/08/31 02:41:06;;;;;;;3.33;1.92;;;;;;;15.48;100.00;99681.44;5590153;31;34788;-67
2023/08/31 02:44:09;;;;;;;3.33;1.90;;;;;;;15.46;100.00;99678.97;5589944;31;33728;-68
2023/08/31 02:47:11;;;;;;;2.85;2.00;;;;;;;15.47;100.00;99685.94;5589353;31;34027;-68
2023/08/31 02:50:14;;;;;;;3.72;2.00;;;;;;;15.51;100.00;99684.50;5590457;31;33810;-69
2023/08/31 02:53:17;;;;;;;3.12;2.00;;;;;;;15.53;100.00;99678.97;5589994;31;33973;-67
2023/08/31 02:56:20;;;;;;;2.72;1.98;;;;;;;15.52;100.00;99688.00;5589375;31;33871;-67
2023/08/31 02:59:22;;;;;;;6.68;1.80;;;;;;;15.45;100.00;99695.22;5589963;31;34687;-67
2023/08/31 03:02:25;;;;;;;2.55;1.85;;;;;;;15.50;100.00;99692.72;5590004;31;33766;-68
2023/08/31 03:05:28;;;;;;;5.18;2.00;;;;;;;15.49;100.00;99699.91;5589839;31;33980;-67
2023/08/31 03:08:31;;;;;;;4.62;1.83;;;;;;;15.45;100.00;99693.34;5589932;31;33784;-68
2023/08/31 03:11:33;;;;;;;3.92;1.92;;;;;;;15.49;100.00;99693.75;5589936;31;33530;-68
2023/08/31 03:14:36;;;;;;;2.30;1.77;;;;;;;15.46;100.00;99697.69;5589067;31;34159;-67
2023/08/31 03:17:39;;;;;;;2.03;1.60;;;;;;;15.44;100.00;99686.38;5589881;31;34702;-67
2023/08/31 03:20:44;;;;;;;2.30;2.10;;;;;;;15.43;100.00;99692.78;5588754;31;34021;-67
2023/08/31 03:23:46;;;;;;;2.30;1.80;;;;;;;15.40;100.00;99697.72;5589857;31;34493;-68
2023/08/31 03:26:49;;;;;;;6.93;2.30;;;;;;;15.44;100.00;99696.25;5589757;31;33774;-67
2023/08/31 03:29:52;;;;;;;3.03;1.98;;;;;;;15.36;100.00;99689.31;5589646;31;33923;-67
2023/08/31 03:32:55;;;;;;;3.72;2.10;;;;;;;15.32;100.00;99696.13;5589607;31;33781;-68
2023/08/31 03:36:04;;;;;;;4.60;2.30;;;;;;;15.33;100.00;99686.25;5589313;31;35111;-68
2023/08/31 03:39:07;;;;;;;3.17;2.30;;;;;;;15.28;100.00;99699.44;5589694;31;33448;-67
2023/08/31 03:42:10;;;;;;;2.80;2.28;;;;;;;15.22;100.00;99707.28;5589769;31;34494;-67
2023/08/31 03:45:13;;;;;;;3.92;2.30;;;;;;;15.17;100.00;99714.28;5589407;31;34699;-67
2023/08/31 03:48:15;;;;;;;4.65;2.30;;;;;;;15.17;100.00;99711.63;5589877;31;33894;-67
2023/08/31 03:51:18;;;;;;;3.85;2.20;;;;;;;15.22;100.00;99719.81;5589491;31;33921;-67
2023/08/31 03:54:21;;;;;;;3.25;2.37;;;;;;;15.09;100.00;99723.38;5589375;31;33901;-67
2023/08/31 03:57:24;;;;;;;3.85;2.75;;;;;;;15.02;100.00;99722.59;5589019;31;34655;-66
2023/08/31 04:00:27;;;;;;;2.60;2.40;;;;;;;15.10;100.00;99726.87;5589747;31;33889;-67
2023/08/31 04:03:29;;;;;;;3.45;2.50;;;;;;;15.04;100.00;99727.72;5589451;31;34587;-67
2023/08/31 04:06:32;;;;;;;3.28;2.65;;;;;;;15.04;100.00;99725.88;5589193;31;34734;-66
2023/08/31 04:09:35;;;;;;;5.97;2.67;;;;;;;15.03;100.00;99723.41;5589738;31;33769;-67
2023/08/31 04:12:42;;;;;;;5.05;2.58;;;;;;;15.06;100.00;99728.31;5589237;31;33907;-67
2023/08/31 04:15:45;;;;;;;5.20;2.72;;;;;;;15.04;100.00;99731.22;5589092;31;33746;-67
2023/08/31 04:18:51;;;;;;;3.30;2.70;;;;;;;15.08;100.00;99732.44;5589621;31;33769;-67
2023/08/31 04:21:54;;;;;;;5.43;2.67;;;;;;;15.09;100.00;99735.91;5588318;31;34489;-66
2023/08/31 04:24:56;;;;;;;4.00;2.95;;;;;;;15.14;100.00;99728.91;5589006;31;33917;-66
2023/08/31 04:27:59;;;;;;;3.87;2.75;;;;;;;15.07;100.00;99729.97;5588775;31;33856;-66
2023/08/31 04:31:04;;;;;;;3.40;2.78;;;;;;;15.04;100.00;99741.09;5588698;31;34472;-65
2023/08/31 04:34:07;;;;;;;4.20;3.10;;;;;;;15.06;100.00;99742.50;5588876;31;34450;-66
2023/08/31 04:37:10;;;;;;;6.75;3.00;;;;;;;15.05;100.00;99740.88;5588727;31;34205;-65
2023/08/31 04:40:13;;;;;;;7.05;2.90;;;;;;;15.15;100.00;99743.09;5588757;31;34885;-66
2023/08/31 04:43:15;;;;;;;3.65;2.55;;;;;;;15.17;100.00;99755.19;5589146;31;34014;-66
2023/08/31 04:46:18;;;;;;;6.05;2.75;;;;;;;15.23;100.00;99767.72;5587782;31;34552;-65
2023/08/31 04:49:21;;;;;;;5.65;2.70;;;;;;;15.29;100.00;99760.69;5587956;31;33812;-66
2023/08/31 04:52:24;;;;;;;4.82;2.20;;;;;;;15.36;100.00;99766.81;5588226;31;33902;-68
2023/08/31 04:55:26;;;;;;;3.12;2.15;;;;;;;15.40;100.00;99772.53;5588769;31;34561;-66
2023/08/31 04:58:29;;;;;;;4.37;2.40;;;;;;;15.52;100.00;99771.69;5588634;31;33794;-65
2023/08/31 05:01:32;;;;;;;4.32;2.30;;;;;;;15.50;100.00;99786.28;5588737;31;34958;-65
2023/08/31 05:04:35;;;;;;;3.00;2.35;;;;;;;15.55;100.00;99786.47;5587695;31;33866;-66
2023/08/31 05:07:37;;;;;;;3.92;2.15;;;;;;;15.73;100.00;99785.78;5588285;31;34253;-67
2023/08/31 05:10:40;;;;;;;3.58;2.10;;;;;;;15.86;100.00;99799.06;5587335;31;33895;-66
2023/08/31 05:13:43;;;;;;;12.82;2.47;;;;;;;15.93;100.00;99800.63;5588298;31;33934;-66
2023/08/31 05:16:47;;;;;;;4.20;2.12;;;;;;;15.95;100.00;99809.28;5588194;31;33883;-66
2023/08/31 05:19:50;;;;;;;3.58;2.40;;;;;;;15.86;100.00;99812.44;5588048;31;33932;-66
2023/08/31 05:22:53;;;;;;;4.87;2.20;;;;;;;15.93;100.00;99813.19;5588039;31;34395;-65
2023/08/31 05:25:58;;;;;;;4.93;2.30;;;;;;;16.08;100.00;99819.06;5587911;31;33914;-66
2023/08/31 05:29:03;;;;;;;3.35;2.10;;;;;;;16.12;100.00;99822.94;5588117;31;33756;-67
2023/08/31 05:32:06;;;;;;;5.25;2.00;;;;;;;16.23;100.00;99829.44;5587296;31;33838;-67
2023/08/31 05:35:09;;;;;;;6.47;2.47;;;;;;;16.20;100.00;99824.53;5586900;31;33763;-67
2023/08/31 05:38:12;;;;;;;6.85;2.47;;;;;;;16.39;100.00;99831.59;5587653;31;34199;-67
2023/08/31 05:41:16;;;;;;;4.65;2.33;;;;;;;16.27;100.00;99831.47;5587037;31;33792;-66
2023/08/31 05:44:18;;;;;;;7.00;2.62;;;;;;;16.22;100.00;99839.34;5588866;31;33869;-68
2023/08/31 05:47:21;;;;;;;4.78;2.30;;;;;;;16.15;100.00;99835.09;5590376;31;33913;-66
2023/08/31 05:50:25;;;;;;;8.02;2.70;;;;;;;16.07;100.00;99850.34;5589331;31;33846;-66
2023/08/31 05:53:28;;;;;;;10.63;2.87;;;;;;;15.99;100.00;99841.75;5590330;31;33868;-67
2023/08/31 05:56:31;;;;;;;5.15;2.80;;;;;;;15.97;100.00;99847.34;5590303;31;33915;-67
2023/08/31 05:59:34;;;;;;;6.47;3.00;;;;;;;16.09;100.00;99845.59;5590616;31;34862;-69
2023/08/31 06:02:36;;;;;;;5.65;3.10;;;;;;;16.22;100.00;99855.38;5589655;31;33796;-67
2023/08/31 06:05:39;;;;;;;8.88;3.35;;;;;;;16.08;100.00;99865.38;5590287;31;34481;-68
2023/08/31 06:08:43;;;;;;;5.85;3.15;;;;;;;16.09;100.00;99871.53;5589103;31;34070;-69
2023/08/31 06:11:46;;;;;;;5.72;3.40;;;;;;;16.27;100.00;99868.94;5589989;31;33998;-67
2023/08/31 06:14:48;;;;;;;7.53;3.20;;;;;;;16.50;100.00;99868.38;5590048;31;33864;-68
2023/08/31 06:17:51;;;;;;;5.82;3.15;;;;;;;16.77;100.00;99872.50;5589527;31;33802;-70
2023/08/31 06:20:54;;;;;;;5.12;2.83;;;;;;;17.06;100.00;99875.50;5590152;31;34351;-68
2023/08/31 06:23:59;;;;;;;6.22;2.80;;;;;;;17.41;100.00;99883.78;5589370;31;32503;-68
2023/08/31 06:27:02;;;;;;;4.47;2.70;;;;;;;17.73;100.00;99883.41;5590551;31;33686;-68
2023/08/31 06:30:07;;;;;;;4.93;2.80;;;;;;;18.06;100.00;99890.19;5589962;31;34755;-69
2023/08/31 06:33:09;;;;;;;3.75;2.72;;;;;;;18.47;100.00;99903.63;5589908;31;33907;-67
2023/08/31 06:36:13;;;;;;;6.50;2.50;;;;;;;17.96;100.00;99898.00;5590203;31;34826;-69
2023/08/31 06:39:16;;;;;;;5.35;2.62;;;;;;;18.51;100.00;99896.75;5589608;31;34043;-67
2023/08/31 06:42:18;;;;;;;3.75;2.97;;;;;;;18.01;100.00;99898.94;5590064;31;34516;-66
2023/08/31 06:45:21;;;;;;;3.60;2.70;;;;;;;17.54;100.00;99897.03;5588808;31;33756;-69
2023/08/31 06:48:25;;;;;;;4.97;2.55;;;;;;;17.46;100.00;99908.91;5589794;31;34482;-68
2023/08/31 06:51:27;;;;;;;5.20;2.60;;;;;;;17.57;100.00;99907.34;5589102;31;34049;-66
2023/08/31 06:54:30;;;;;;;4.65;2.70;;;;;;;17.59;100.00;99906.09;5590052;31;34444;-68
2023/08/31 06:57:33;;;;;;;6.03;2.60;;;;;;;17.93;100.00;99893.06;5589685;31;34536;-68
2023/08/31 07:00:36;;;;;;;5.57;2.78;;;;;;;17.94;100.00;99908.13;5589970;31;33760;-68
2023/08/31 07:03:39;;;;;;;5.47;2.72;;;;;;;17.74;100.00;99897.66;5576012;31;34981;-68
2023/08/31 07:06:42;;;;;;;6.87;3.03;;;;;;;17.87;100.00;99904.69;5589394;31;34546;-68
2023/08/31 07:09:46;;;;;;;5.20;2.87;;;;;;;18.16;100.00;99912.75;5589239;31;34222;-67
2023/08/31 07:12:49;;;;;;;4.68;2.80;;;;;;;18.10;100.00;99907.50;5590023;31;33903;-67
2023/08/31 07:15:52;;;;;;;7.75;2.87;;;;;;;18.08;100.00;99920.31;5589430;31;33948;-69
2023/08/31 07:18:55;;;;;;;4.75;2.65;;;;;;;18.23;100.00;99926.09;5588870;31;33859;-68
2023/08/31 07:21:59;;;;;;;4.15;2.50;;;;;;;18.22;100.00;99929.81;5589515;31;34815;-66
2023/08/31 07:25:03;;;;;;;3.58;2.37;;;;;;;18.37;100.00;99930.22;5589504;31;34728;-68
2023/08/31 07:28:06;;;;;;;4.43;2.37;;;;;;;18.91;100.00;99936.44;5589625;31;33888;-68
2023/08/31 07:31:09;;;;;;;5.37;2.40;;;;;;;18.78;100.00;99937.47;5589540;31;34001;-69
2023/08/31 07:34:12;;;;;;;3.87;2.22;;;;;;;19.46;100.00;99940.41;5589693;31;33806;-68
2023/08/31 07:37:15;;;;;;;3.97;2.00;;;;;;;19.28;100.00;99940.53;5588663;31;33840;-68
2023/08/31 07:40:17;;;;;;;5.18;2.10;;;;;;;19.71;100.00;99948.19;5589371;31;33990;-69
2023/08/31 07:43:20;;;;;;;2.78;2.00;;;;;;;19.83;100.00;99935.53;5588819;31;34471;-70
2023/08/31 07:46:23;;;;;;;4.10;2.20;;;;;;;20.52;100.00;99949.81;5584608;31;129657;-68
2023/08/31 07:49:26;;;;;;;2.62;1.90;;;;;;;20.42;100.00;99943.41;5588643;31;33838;-68
2023/08/31 07:52:29;;;;;;;3.25;1.90;;;;;;;21.03;100.00;99947.94;5588578;31;33914;-68
2023/08/31 07:55:32;;;;;;;6.30;2.17;;;;;;;20.64;100.00;99945.16;5589008;31;34536;-70
2023/08/31 07:58:35;;;;;;;3.87;1.98;;;;;;;20.86;100.00;99947.97;5589153;31;34576;-68
2023/08/31 08:01:38;;;;;;;3.53;1.98;;;;;;;20.39;100.00;99948.22;5589100;31;34613;-68
2023/08/31 08:04:41;;;;;;;4.47;2.55;;;;;;;20.42;100.00;99951.50;5588869;31;34443;-68
2023/08/31 08:07:43;;;;;;;7.68;2.00;;;;;;;20.19;100.00;99952.38;5588383;31;34108;-68
2023/08/31 08:10:46;;;;;;;4.25;2.50;;;;;;;20.43;100.00;99959.31;5588908;31;35108;-68
2023/08/31 08:13:49;;;;;;;6.68;2.50;;;;;;;20.81;100.00;99969.44;5589052;31;34562;-69
2023/08/31 08:16:52;;;;;;;7.90;2.58;;;;;;;21.51;96.68;99966.19;5589108;31;33808;-68
2023/08/31 08:19:55;;;;;;;4.15;2.42;;;;;;;21.66;92.83;99961.00;5588966;31;34619;-68
2023/08/31 08:22:58;;;;;;;5.00;2.50;;;;;;;21.62;91.75;99974.19;5589029;31;34653;-70
2023/08/31 08:26:01;;;;;;;4.62;2.28;;;;;;;22.31;86.96;99968.31;5588801;31;34535;-69
2023/08/31 08:29:04;;;;;;;4.22;2.50;;;;;;;21.80;92.80;99975.78;5588424;31;34568;-69
2023/08/31 08:32:08;;;;;;;4.05;2.50;;;;;;;21.76;94.56;99980.03;5588928;31;33832;-69
2023/08/31 08:35:11;;;;;;;4.37;2.10;;;;;;;23.70;76.11;99985.13;5588878;31;34098;-68
2023/08/31 08:38:14;;;;;;;4.28;1.98;;;;;;;23.95;75.11;99981.72;5587469;31;33911;-70
2023/08/31 08:41:28;;;;;;;7.37;2.40;;;;;;;26.67;61.44;99987.13;5588499;31;34153;-70
2023/08/31 08:44:33;;;;;;;2.80;1.83;;;;;;;24.73;66.58;99985.22;5587993;31;33853;-69
2023/08/31 08:47:36;;;;;;;3.72;2.12;;;;;;;25.29;63.84;99979.78;5587662;31;33707;-69
2023/08/31 08:50:40;;;;;;;3.58;1.60;;;;;;;26.91;56.15;99992.69;5588223;31;33706;-68
2023/08/31 08:53:46;;;;;;;6.20;2.08;;;;;;;27.66;54.51;99991.97;5588483;31;34174;-68
2023/08/31 08:56:49;;;;;;;5.20;1.85;;;;;;;27.62;54.55;99987.41;5587888;31;34002;-69
2023/08/31 08:59:52;;;;;;;3.37;1.50;;;;;;;26.88;55.82;99996.78;5587720;31;35376;-70
2023/08/31 09:02:55;;;;;;;2.60;1.60;;;;;;;26.24;56.03;99999.63;5588001;31;33806;-69
2023/08/31 09:06:03;;;;;;;2.70;1.65;;;;;;;25.66;59.18;99998.50;5588007;31;33738;-69
2023/08/31 09:09:09;;;;;;;2.58;1.40;;;;;;;23.76;62.70;100008.47;5586940;31;33790;-68
2023/08/31 09:12:12;;;;;;;2.08;1.60;;;;;;;23.55;65.97;100009.44;5587215;31;34114;-68
2023/08/31 09:15:16;;;;;;;3.92;1.80;;;;;;;22.93;72.73;100010.03;5587583;31;33849;-68
2023/08/31 09:18:31;;;;;;;5.22;1.70;;;;;;;22.60;76.61;100006.72;5588090;31;34520;-69
2023/08/31 09:21:40;;;;;;;3.08;1.70;;;;;;;22.65;76.93;100012.16;5590594;31;33895;-68
2023/08/31 09:24:44;;;;;;;4.05;1.50;;;;;;;22.77;76.06;100016.37;5590268;31;33857;-67
2023/08/31 09:27:48;;;;;;;2.92;1.67;;;;;;;22.75;74.56;100021.19;5590440;31;33881;-69
2023/08/31 09:30:53;;;;;;;3.60;1.70;;;;;;;23.83;70.61;100022.56;5589691;31;33859;-68
2023/08/31 09:33:56;;;;;;;4.20;1.60;;;;;;;23.45;69.75;100025.59;5590110;31;33905;-68
2023/08/31 09:37:09;;;;;;;5.05;1.58;;;;;;;23.13;67.66;100036.44;5590309;31;33969;-68
2023/08/31 09:40:14;;;;;;;5.57;1.80;;;;;;;23.22;68.54;100032.19;5590451;31;33846;-69
2023/08/31 09:43:22;;;;;;;2.33;1.60;;;;;;;22.64;70.76;100024.88;5590215;31;34000;-68
2023/08/31 09:46:25;;;;;;;1.80;1.40;;;;;;;22.85;71.40;100024.00;5591509;31;33906;-67
2023/08/31 09:49:29;;;;;;;4.55;1.48;;;;;;;23.53;67.85;100027.81;5589898;31;33823;-69
2023/08/31 09:52:32;;;;;;;3.83;1.40;;;;;;;23.55;66.30;100028.38;5589594;31;33841;-69
2023/08/31 09:55:38;;;;;;;3.50;1.55;;;;;;;24.07;65.23;100020.25;5590003;31;34456;-70
2023/08/31 09:58:42;;;;;;;3.90;1.60;;;;;;;23.88;62.38;100024.50;5589013;31;33877;-69
2023/08/31 10:01:48;;;;;;;2.87;1.20;;;;;;;24.49;60.74;100033.72;5576639;31;34062;-70
2023/08/31 10:04:52;;;;;;;3.75;1.33;;;;;;;24.56;59.59;100039.69;5590627;31;34097;-69
2023/08/31 10:07:55;;;;;;;2.20;1.33;;;;;;;23.99;61.11;100042.44;5590248;31;34561;-69
2023/08/31 10:11:03;;;;;;;5.93;1.40;;;;;;;23.32;62.24;100034.16;5589542;31;34119;-68
2023/08/31 10:14:07;;;;;;;9.15;1.50;;;;;;;23.85;60.84;100048.59;5589336;31;34095;-68
2023/08/31 10:17:11;;;;;;;4.93;1.90;;;;;;;23.92;62.63;100043.75;5589972;31;34170;-68
2023/08/31 10:20:17;;;;;;;2.00;1.48;;;;;;;23.92;60.32;100049.97;5589698;31;33830;-69
2023/08/31 10:23:20;;;;;;;3.65;1.45;;;;;;;23.31;63.54;100057.69;5589885;31;33943;-71
2023/08/31 10:26:31;;;;;;;3.62;1.50;;;;;;;23.39;63.58;100064.50;5589813;31;33001;-71
2023/08/31 10:29:34;;;;;;;4.28;1.70;;;;;;;23.91;63.21;100056.50;5589047;31;33892;-69
2023/08/31 10:32:37;;;;;;;3.00;1.30;;;;;;;24.37;60.99;100068.38;5589816;31;33966;-69
2023/08/31 10:35:47;;;;;;;3.90;1.60;;;;;;;23.63;64.72;100068.50;5590162;31;34066;-68
2023/08/31 10:38:56;;;;;;;4.12;1.52;;;;;;;22.84;68.18;100060.25;5589747;31;34026;-70
2023/08/31 10:42:00;;;;;;;2.07;1.40;;;;;;;23.79;65.65;100055.88;5589817;31;33893;-69
2023/08/31 10:45:06;;;;;;;4.62;1.50;;;;;;;24.87;61.81;100067.75;5589137;31;34706;-71
2023/08/31 10:48:10;;;;;;;4.82;1.50;;;;;;;25.41;60.11;100067.22;5589875;31;33955;-68
2023/08/31 10:51:18;;;;;;;2.75;1.20;;;;;;;26.17;55.11;100073.31;5589846;31;34007;-69
2023/08/31 10:54:26;;;;;;;2.37;1.20;;;;;;;25.46;55.95;100081.59;5589449;31;33871;-67
2023/08/31 10:57:31;;;;;;;2.53;1.33;;;;;;;25.12;58.06;100073.16;5588755;31;33772;-69
2023/08/31 11:01:01;;;;;;;2.97;1.40;;;;;;;25.11;58.60;100078.88;5589879;31;34407;-69
2023/08/31 11:04:10;;;;;;;6.20;1.20;;;;;;;25.92;57.30;100081.56;5587448;31;33676;-70
2023/08/31 11:07:18;;;;;;;4.07;1.27;;;;;;;25.79;55.98;100074.81;5589804;31;34435;-71
2023/08/31 11:10:23;;;;;;;3.33;1.20;;;;;;;25.45;57.50;100085.41;5589761;31;33958;-70
2023/08/31 11:13:28;;;;;;;4.10;1.33;;;;;;;25.71;56.16;100088.91;5589787;31;34101;-69
2023/08/31 11:16:31;;;;;;;4.85;1.30;;;;;;;25.55;56.47;100090.06;5589579;31;35036;-69
2023/08/31 11:19:35;;;;;;;2.20;1.35;;;;;;;24.29;60.05;100092.47;5589339;31;33911;-69
2023/08/31 11:22:42;;;;;;;3.12;1.25;;;;;;;24.74;59.13;100091.84;5589368;31;33970;-72
2023/08/31 11:25:47;;;;;;;5.00;1.33;;;;;;;24.24;60.74;100088.66;5589310;31;34884;-68
2023/08/31 11:28:49;;;;;;;4.35;1.40;;;;;;;24.46;58.64;100093.91;5589206;31;33829;-70
2023/08/31 11:31:52;;;;;;;3.17;1.40;;;;;;;24.55;59.38;100103.16;5589452;31;34054;-69
2023/08/31 11:34:55;;;;;;;5.55;1.40;;;;;;;24.39;58.77;100092.53;5589533;31;34479;-69
2023/08/31 11:37:58;;;;;;;5.15;1.40;;;;;;;23.90;60.67;100098.22;5589562;31;34759;-69
2023/08/31 11:41:01;;;;;;;4.22;1.30;;;;;;;26.30;51.34;100099.13;5588323;31;34596;-68
2023/08/31 11:44:05;;;;;;;2.37;1.33;;;;;;;28.87;45.39;100097.97;5589750;31;33537;-69
2023/08/31 11:47:07;;;;;;;1.87;1.27;;;;;;;31.43;39.59;100098.72;5589659;31;35481;-70
2023/08/31 11:50:13;;;;;;;3.97;1.65;;;;;;;31.81;39.46;100093.63;5588530;31;33797;-73
2023/08/31 11:53:16;;;;;;;5.15;1.40;;;;;;;33.63;35.44;100107.34;5589384;31;34124;-70
2023/08/31 11:56:22;;;;;;;2.50;1.33;;;;;;;32.89;36.11;100106.75;5589761;31;34586;-70
2023/08/31 11:59:25;;;;;;;1.98;1.37;;;;;;;28.24;43.45;100094.69;5589458;31;34715;-69
2023/08/31 12:02:27;;;;;;;3.10;1.30;;;;;;;28.64;43.50;100090.63;5589089;31;34891;-71
2023/08/31 12:05:45;;;;;;;3.75;1.48;;;;;;;30.46;41.68;100095.75;5589548;31;33769;-71
2023/08/31 12:08:49;;;;;;;4.05;1.40;;;;;;;31.33;39.50;100092.66;5589351;31;35203;-71
2023/08/31 12:11:52;;;;;;;3.45;1.23;;;;;;;32.03;37.27;100098.25;5588263;31;35290;-71
2023/08/31 12:14:55;;;;;;;2.85;1.25;;;;;;;33.44;34.01;100095.91;5589262;31;33834;-70
2023/08/31 12:17:58;;;;;;;7.12;1.35;;;;;;;36.02;29.59;100102.41;5588189;31;34114;-72
2023/08/31 12:21:04;;;;;;;2.17;1.12;;;;;;;37.12;28.71;100097.63;5588233;31;34634;-72
2023/08/31 12:24:08;;;;;;;2.28;1.30;;;;;;;36.11;28.75;100102.31;5588960;31;33902;-72
2023/08/31 12:27:11;;;;;;;2.03;1.10;;;;;;;35.81;28.58;100092.63;5588297;31;33962;-73
2023/08/31 12:30:15;;;;;;;2.45;1.15;;;;;;;34.27;30.43;100090.00;5588851;31;34089;-72
2023/08/31 12:33:19;;;;;;;5.93;1.33;;;;;;;34.76;29.06;100085.66;5588858;31;34540;-72
2023/08/31 12:36:23;;;;;;;3.37;1.37;;;;;;;36.76;27.75;100089.41;5589085;31;33733;-73
2023/08/31 12:39:27;;;;;;;1.67;1.15;;;;;;;38.02;25.11;100087.78;5589094;31;34784;-72
2023/08/31 12:42:30;;;;;;;2.15;1.20;;;;;;;34.55;29.06;100082.84;5588869;31;34596;-72
2023/08/31 12:45:34;;;;;;;2.70;1.10;;;;;;;32.87;32.60;100088.97;5588030;31;34012;-72
2023/08/31 12:48:37;;;;;;;3.58;1.23;;;;;;;34.35;29.80;100098.22;5588879;31;34234;-71
2023/08/31 12:51:40;;;;;;;2.70;1.17;;;;;;;35.77;27.22;100088.94;5588623;31;33912;-74
2023/08/31 12:54:43;;;;;;;1.65;1.25;;;;;;;33.23;31.54;100083.16;5595200;31;32304;-71
2023/08/31 12:57:46;;;;;;;3.58;1.23;;;;;;;34.03;30.62;100080.34;5594950;31;33966;-72
2023/08/31 13:00:50;;;;;;;1.75;1.17;;;;;;;33.83;30.26;100074.78;5595082;31;33910;-72
2023/08/31 13:03:53;;;;;;;4.03;1.50;;;;;;;29.66;35.98;100080.59;5594921;31;34285;-71
2023/08/31 13:06:58;;;;;;;3.12;1.30;;;;;;;29.19;37.80;100078.09;5594760;31;33899;-71
2023/08/31 13:10:03;;;;;;;2.30;1.33;;;;;;;28.48;37.75;100070.91;5594335;31;34167;-71
2023/08/31 13:13:07;;;;;;;5.30;1.65;;;;;;;27.72;40.08;100065.53;5593919;31;33876;-71
2023/08/31 13:16:10;;;;;;;1.60;1.15;;;;;;;27.37;40.62;100070.19;5594690;31;33914;-71
2023/08/31 13:19:13;;;;;;;2.05;1.17;;;;;;;26.27;42.05;100072.50;5594444;31;34210;-71
2023/08/31 13:22:16;;;;;;;1.80;1.23;;;;;;;25.35;44.06;100071.00;5594407;31;33778;-70
2023/08/31 13:25:19;;;;;;;2.25;1.30;;;;;;;25.08;45.81;100068.56;5593432;31;33836;-70
2023/08/31 13:28:22;;;;;;;1.75;1.30;;;;;;;25.82;43.87;100068.81;5594023;31;34102;-69
2023/08/31 13:31:25;;;;;;;2.03;1.37;;;;;;;25.56;44.77;100072.66;5593992;31;33911;-70
2023/08/31 13:34:28;;;;;;;3.62;1.30;;;;;;;27.08;42.41;100061.16;5594335;31;33986;-68
2023/08/31 13:37:31;;;;;;;3.17;1.52;;;;;;;31.60;35.02;100067.06;5594118;31;33868;-69
2023/08/31 13:40:36;;;;;;;2.45;1.30;;;;;;;33.93;30.69;100066.16;5593607;31;34432;-68
2023/08/31 13:43:39;;;;;;;4.15;1.05;;;;;;;33.98;30.38;100060.47;5593849;31;33913;-68
2023/08/31 13:46:42;;;;;;;3.12;1.12;;;;;;;33.73;30.27;100062.19;5594018;31;34566;-68
2023/08/31 13:49:45;;;;;;;2.97;1.40;;;;;;;33.53;29.81;100063.69;5593746;31;34019;-69
2023/08/31 13:52:49;;;;;;;4.65;1.40;;;;;;;30.09;33.63;100066.66;5593090;31;34045;-69
2023/08/31 13:55:52;;;;;;;1.75;1.35;;;;;;;27.78;38.67;100058.94;5592734;31;33919;-69
2023/08/31 13:58:54;;;;;;;5.45;1.85;;;;;;;26.71;41.33;100067.09;5592648;31;34483;-68
2023/08/31 14:01:58;;;;;;;5.35;1.77;;;;;;;25.75;43.07;100068.28;5593473;31;33899;-69
2023/08/31 14:05:02;;;;;;;2.80;1.80;;;;;;;27.53;40.27;100068.97;5591059;31;34633;-67
2023/08/31 14:08:05;;;;;;;3.33;1.50;;;;;;;30.39;34.80;100076.19;5589900;31;34071;-68
2023/08/31 14:11:08;;;;;;;3.00;1.48;;;;;;;30.06;34.54;100079.03;5589479;31;34541;-70
2023/08/31 14:14:10;;;;;;;1.67;1.35;;;;;;;28.72;36.52;100068.97;5589018;31;34738;-69
2023/08/31 14:17:14;;;;;;;2.65;1.77;;;;;;;27.71;38.58;100074.78;5589067;31;34151;-69
2023/08/31 14:20:16;;;;;;;3.20;1.52;;;;;;;26.72;41.06;100069.53;5588560;31;34373;-67